sensor_id;sensor_type;location;lat;lon;timestamp;temperature;humidity
59961;DHT22;55902;-37.980;-63.602;2023-05-09T00:01:11;11.30;93.80
59961;DHT22;55902;-37.980;-63.602;2023-05-09T00:03:39;11.30;93.70
59961;DHT22;55902;-37.980;-63.602;2023-05-09T00:09:30;11.20;93.60
59961;DHT22;55902;-37.980;-63.602;2023-05-09T00:11:58;11.20;94.10
59961;DHT22;55902;-37.980;-63.602;2023-05-09T00:14:25;11.10;95.00
59961;DHT22;55902;-37.980;-63.602;2023-05-09T00:16:52;11.10;95.30
59961;DHT22;55902;-37.980;-63.602;2023-05-09T00:19:47;11.10;95.00
59961;DHT22;55902;-37.980;-63.602;2023-05-09T00:22:16;11.10;95.30
59961;DHT22;55902;-37.980;-63.602;2023-05-09T00:24:43;11.00;95.10
59961;DHT22;55902;-37.980;-63.602;2023-05-09T00:27:10;11.00;95.20
59961;DHT22;55902;-37.980;-63.602;2023-05-09T00:29:37;10.90;94.70
59961;DHT22;55902;-37.980;-63.602;2023-05-09T00:32:04;10.90;94.00
59961;DHT22;55902;-37.980;-63.602;2023-05-09T00:34:34;10.90;94.20
59961;DHT22;55902;-37.980;-63.602;2023-05-09T00:37:01;10.80;94.20
59961;DHT22;55902;-37.980;-63.602;2023-05-09T00:39:28;10.80;94.10
59961;DHT22;55902;-37.980;-63.602;2023-05-09T00:41:56;10.70;94.90
59961;DHT22;55902;-37.980;-63.602;2023-05-09T00:44:23;10.60;95.70
59961;DHT22;55902;-37.980;-63.602;2023-05-09T00:46:51;10.50;95.70
59961;DHT22;55902;-37.980;-63.602;2023-05-09T00:49:18;10.40;96.70
59961;DHT22;55902;-37.980;-63.602;2023-05-09T00:51:45;10.40;97.50
59961;DHT22;55902;-37.980;-63.602;2023-05-09T00:54:13;10.30;97.40
59961;DHT22;55902;-37.980;-63.602;2023-05-09T00:56:40;10.30;97.70
59961;DHT22;55902;-37.980;-63.602;2023-05-09T00:59:07;10.20;98.10
59961;DHT22;55902;-37.980;-63.602;2023-05-09T01:01:34;10.20;98.30
59961;DHT22;55902;-37.980;-63.602;2023-05-09T01:04:02;10.10;99.00
59961;DHT22;55902;-37.980;-63.602;2023-05-09T01:20:32;9.90;98.30
59961;DHT22;55902;-37.980;-63.602;2023-05-09T01:25:54;9.90;98.20
59961;DHT22;55902;-37.980;-63.602;2023-05-09T01:31:03;9.90;98.20
59961;DHT22;55902;-37.980;-63.602;2023-05-09T01:33:32;9.80;99.10
59961;DHT22;55902;-37.980;-63.602;2023-05-09T01:36:05;9.80;98.90
59961;DHT22;55902;-37.980;-63.602;2023-05-09T01:38:36;9.80;99.30
59961;DHT22;55902;-37.980;-63.602;2023-05-09T01:41:06;9.70;99.90
59961;DHT22;55902;-37.980;-63.602;2023-05-09T01:43:36;9.70;99.90
59961;DHT22;55902;-37.980;-63.602;2023-05-09T01:46:05;9.60;99.90
59961;DHT22;55902;-37.980;-63.602;2023-05-09T01:48:34;9.60;99.90
59961;DHT22;55902;-37.980;-63.602;2023-05-09T01:51:02;9.60;99.90
59961;DHT22;55902;-37.980;-63.602;2023-05-09T01:53:30;9.50;99.90
59961;DHT22;55902;-37.980;-63.602;2023-05-09T01:55:59;9.50;99.90
59961;DHT22;55902;-37.980;-63.602;2023-05-09T01:58:28;9.40;99.90
59961;DHT22;55902;-37.980;-63.602;2023-05-09T02:00:57;9.40;99.90
59961;DHT22;55902;-37.980;-63.602;2023-05-09T02:03:25;9.40;99.90
59961;DHT22;55902;-37.980;-63.602;2023-05-09T02:05:54;9.40;99.90
59961;DHT22;55902;-37.980;-63.602;2023-05-09T02:08:22;9.40;99.90
59961;DHT22;55902;-37.980;-63.602;2023-05-09T02:10:49;9.30;99.90
59961;DHT22;55902;-37.980;-63.602;2023-05-09T02:13:16;9.30;99.90
59961;DHT22;55902;-37.980;-63.602;2023-05-09T02:15:43;9.30;99.90
59961;DHT22;55902;-37.980;-63.602;2023-05-09T02:18:11;9.30;99.90
59961;DHT22;55902;-37.980;-63.602;2023-05-09T02:20:39;9.30;99.90
59961;DHT22;55902;-37.980;-63.602;2023-05-09T02:23:06;9.30;99.90
59961;DHT22;55902;-37.980;-63.602;2023-05-09T02:35:45;9.10;99.90
59961;DHT22;55902;-37.980;-63.602;2023-05-09T02:38:13;9.10;99.90
59961;DHT22;55902;-37.980;-63.602;2023-05-09T02:40:42;9.00;99.90
59961;DHT22;55902;-37.980;-63.602;2023-05-09T02:43:09;9.00;99.90
59961;DHT22;55902;-37.980;-63.602;2023-05-09T02:45:36;9.00;99.90
59961;DHT22;55902;-37.980;-63.602;2023-05-09T02:48:04;8.90;99.90
59961;DHT22;55902;-37.980;-63.602;2023-05-09T02:50:31;8.90;99.90
59961;DHT22;55902;-37.980;-63.602;2023-05-09T02:52:58;8.90;99.90
59961;DHT22;55902;-37.980;-63.602;2023-05-09T02:55:25;8.90;99.90
59961;DHT22;55902;-37.980;-63.602;2023-05-09T02:57:52;8.90;99.90
59961;DHT22;55902;-37.980;-63.602;2023-05-09T03:00:19;8.90;99.90
59961;DHT22;55902;-37.980;-63.602;2023-05-09T03:02:47;8.80;99.90
59961;DHT22;55902;-37.980;-63.602;2023-05-09T03:05:14;8.80;99.90
59961;DHT22;55902;-37.980;-63.602;2023-05-09T03:17:47;8.70;99.90
59961;DHT22;55902;-37.980;-63.602;2023-05-09T03:20:14;8.70;99.90
59961;DHT22;55902;-37.980;-63.602;2023-05-09T03:22:41;8.70;99.90
59961;DHT22;55902;-37.980;-63.602;2023-05-09T03:25:08;8.60;99.90
59961;DHT22;55902;-37.980;-63.602;2023-05-09T03:27:35;8.60;99.90
59961;DHT22;55902;-37.980;-63.602;2023-05-09T03:30:02;8.60;99.90
59961;DHT22;55902;-37.980;-63.602;2023-05-09T03:32:29;8.60;99.90
59961;DHT22;55902;-37.980;-63.602;2023-05-09T03:34:56;8.60;99.90
59961;DHT22;55902;-37.980;-63.602;2023-05-09T03:37:23;8.50;99.90
59961;DHT22;55902;-37.980;-63.602;2023-05-09T03:39:50;8.50;99.90
59961;DHT22;55902;-37.980;-63.602;2023-05-09T03:42:17;8.50;99.90
59961;DHT22;55902;-37.980;-63.602;2023-05-09T03:44:44;8.40;99.90
59961;DHT22;55902;-37.980;-63.602;2023-05-09T03:47:10;8.40;99.90
59961;DHT22;55902;-37.980;-63.602;2023-05-09T03:49:37;8.40;99.90
59961;DHT22;55902;-37.980;-63.602;2023-05-09T03:52:04;8.40;99.90
59961;DHT22;55902;-37.980;-63.602;2023-05-09T03:54:31;8.30;99.90
59961;DHT22;55902;-37.980;-63.602;2023-05-09T03:57:01;8.30;99.90
59961;DHT22;55902;-37.980;-63.602;2023-05-09T03:59:28;8.30;99.90
59961;DHT22;55902;-37.980;-63.602;2023-05-09T04:01:55;8.30;99.90
59961;DHT22;55902;-37.980;-63.602;2023-05-09T04:04:22;8.30;99.90
59961;DHT22;55902;-37.980;-63.602;2023-05-09T04:06:49;8.30;99.90
59961;DHT22;55902;-37.980;-63.602;2023-05-09T04:09:17;8.30;99.90
59961;DHT22;55902;-37.980;-63.602;2023-05-09T04:11:44;8.20;99.90
59961;DHT22;55902;-37.980;-63.602;2023-05-09T04:14:11;8.20;99.90
59961;DHT22;55902;-37.980;-63.602;2023-05-09T04:16:38;8.20;99.90
59961;DHT22;55902;-37.980;-63.602;2023-05-09T04:19:05;8.10;99.90
59961;DHT22;55902;-37.980;-63.602;2023-05-09T04:21:32;8.00;99.90
59961;DHT22;55902;-37.980;-63.602;2023-05-09T04:23:59;8.10;99.90
59961;DHT22;55902;-37.980;-63.602;2023-05-09T04:26:26;8.10;99.90
59961;DHT22;55902;-37.980;-63.602;2023-05-09T04:28:53;8.00;99.90
59961;DHT22;55902;-37.980;-63.602;2023-05-09T04:31:20;8.00;99.90
59961;DHT22;55902;-37.980;-63.602;2023-05-09T04:33:48;7.90;99.90
59961;DHT22;55902;-37.980;-63.602;2023-05-09T04:36:15;7.90;99.90
59961;DHT22;55902;-37.980;-63.602;2023-05-09T04:38:42;7.90;99.90
59961;DHT22;55902;-37.980;-63.602;2023-05-09T04:41:09;7.90;99.90
59961;DHT22;55902;-37.980;-63.602;2023-05-09T04:43:36;7.90;99.90
59961;DHT22;55902;-37.980;-63.602;2023-05-09T04:46:03;7.90;99.90
59961;DHT22;55902;-37.980;-63.602;2023-05-09T04:48:30;7.90;99.90
59961;DHT22;55902;-37.980;-63.602;2023-05-09T04:50:57;7.90;99.90
59961;DHT22;55902;-37.980;-63.602;2023-05-09T04:53:24;7.90;99.90
59961;DHT22;55902;-37.980;-63.602;2023-05-09T04:55:52;7.90;99.90
59961;DHT22;55902;-37.980;-63.602;2023-05-09T04:58:19;7.90;99.90
59961;DHT22;55902;-37.980;-63.602;2023-05-09T05:00:46;7.90;99.90
59961;DHT22;55902;-37.980;-63.602;2023-05-09T05:03:13;7.90;99.90
59961;DHT22;55902;-37.980;-63.602;2023-05-09T05:05:40;7.90;99.90
59961;DHT22;55902;-37.980;-63.602;2023-05-09T05:08:10;7.80;99.90
59961;DHT22;55902;-37.980;-63.602;2023-05-09T05:10:37;7.80;99.90
59961;DHT22;55902;-37.980;-63.602;2023-05-09T05:13:04;7.80;99.90
59961;DHT22;55902;-37.980;-63.602;2023-05-09T05:15:31;7.80;99.90
59961;DHT22;55902;-37.980;-63.602;2023-05-09T05:17:58;7.70;99.90
59961;DHT22;55902;-37.980;-63.602;2023-05-09T05:20:25;7.70;99.90
59961;DHT22;55902;-37.980;-63.602;2023-05-09T05:22:56;7.60;99.90
59961;DHT22;55902;-37.980;-63.602;2023-05-09T05:25:24;7.60;99.90
59961;DHT22;55902;-37.980;-63.602;2023-05-09T05:27:51;7.60;99.90
59961;DHT22;55902;-37.980;-63.602;2023-05-09T05:30:18;7.60;99.90
59961;DHT22;55902;-37.980;-63.602;2023-05-09T05:32:46;7.60;99.90
59961;DHT22;55902;-37.980;-63.602;2023-05-09T05:35:13;7.60;99.90
59961;DHT22;55902;-37.980;-63.602;2023-05-09T05:37:43;7.60;99.90
59961;DHT22;55902;-37.980;-63.602;2023-05-09T05:40:10;7.50;99.90
59961;DHT22;55902;-37.980;-63.602;2023-05-09T05:42:37;7.50;99.90
59961;DHT22;55902;-37.980;-63.602;2023-05-09T05:45:05;7.50;99.90
59961;DHT22;55902;-37.980;-63.602;2023-05-09T05:47:33;7.50;99.90
59961;DHT22;55902;-37.980;-63.602;2023-05-09T05:50:01;7.50;99.90
59961;DHT22;55902;-37.980;-63.602;2023-05-09T05:52:29;7.50;99.90
59961;DHT22;55902;-37.980;-63.602;2023-05-09T05:54:56;7.50;99.90
59961;DHT22;55902;-37.980;-63.602;2023-05-09T05:57:23;7.40;99.90
59961;DHT22;55902;-37.980;-63.602;2023-05-09T06:03:11;7.30;99.90
59961;DHT22;55902;-37.980;-63.602;2023-05-09T06:05:46;7.20;99.90
59961;DHT22;55902;-37.980;-63.602;2023-05-09T06:12:20;7.30;99.90
59961;DHT22;55902;-37.980;-63.602;2023-05-09T06:14:47;7.20;99.90
59961;DHT22;55902;-37.980;-63.602;2023-05-09T06:17:14;7.20;99.90
59961;DHT22;55902;-37.980;-63.602;2023-05-09T06:19:41;7.30;99.90
59961;DHT22;55902;-37.980;-63.602;2023-05-09T06:22:08;7.30;99.90
59961;DHT22;55902;-37.980;-63.602;2023-05-09T06:24:35;7.30;99.90
59961;DHT22;55902;-37.980;-63.602;2023-05-09T06:27:03;7.30;99.90
59961;DHT22;55902;-37.980;-63.602;2023-05-09T06:29:30;7.30;99.90
59961;DHT22;55902;-37.980;-63.602;2023-05-09T06:31:57;7.30;99.90
59961;DHT22;55902;-37.980;-63.602;2023-05-09T06:34:24;7.40;99.90
59961;DHT22;55902;-37.980;-63.602;2023-05-09T06:36:51;7.40;99.90
59961;DHT22;55902;-37.980;-63.602;2023-05-09T06:39:17;7.40;99.90
59961;DHT22;55902;-37.980;-63.602;2023-05-09T06:41:45;7.40;99.90
59961;DHT22;55902;-37.980;-63.602;2023-05-09T06:44:12;7.30;99.90
59961;DHT22;55902;-37.980;-63.602;2023-05-09T06:46:39;7.40;99.90
59961;DHT22;55902;-37.980;-63.602;2023-05-09T06:49:06;7.30;99.90
59961;DHT22;55902;-37.980;-63.602;2023-05-09T06:51:33;7.20;99.90
59961;DHT22;55902;-37.980;-63.602;2023-05-09T07:04:05;7.30;99.90
59961;DHT22;55902;-37.980;-63.602;2023-05-09T07:06:32;7.30;99.90
59961;DHT22;55902;-37.980;-63.602;2023-05-09T07:09:00;7.40;99.90
59961;DHT22;55902;-37.980;-63.602;2023-05-09T07:11:27;7.40;99.90
59961;DHT22;55902;-37.980;-63.602;2023-05-09T07:13:54;7.40;99.90
59961;DHT22;55902;-37.980;-63.602;2023-05-09T07:16:21;7.40;99.90
59961;DHT22;55902;-37.980;-63.602;2023-05-09T07:18:48;7.50;99.90
59961;DHT22;55902;-37.980;-63.602;2023-05-09T07:21:15;7.50;99.90
59961;DHT22;55902;-37.980;-63.602;2023-05-09T07:23:42;7.50;99.90
59961;DHT22;55902;-37.980;-63.602;2023-05-09T07:26:09;7.50;99.90
59961;DHT22;55902;-37.980;-63.602;2023-05-09T07:28:36;7.50;99.90
59961;DHT22;55902;-37.980;-63.602;2023-05-09T07:31:03;7.60;99.90
59961;DHT22;55902;-37.980;-63.602;2023-05-09T07:33:31;7.50;99.90
59961;DHT22;55902;-37.980;-63.602;2023-05-09T07:35:59;7.50;99.90
59961;DHT22;55902;-37.980;-63.602;2023-05-09T07:38:26;7.50;99.90
59961;DHT22;55902;-37.980;-63.602;2023-05-09T07:40:53;7.50;99.90
59961;DHT22;55902;-37.980;-63.602;2023-05-09T07:43:20;7.60;99.90
59961;DHT22;55902;-37.980;-63.602;2023-05-09T07:45:47;7.60;99.90
59961;DHT22;55902;-37.980;-63.602;2023-05-09T07:48:14;7.60;99.90
59961;DHT22;55902;-37.980;-63.602;2023-05-09T07:50:41;7.60;99.90
59961;DHT22;55902;-37.980;-63.602;2023-05-09T07:53:08;7.70;99.90
59961;DHT22;55902;-37.980;-63.602;2023-05-09T07:55:35;7.70;99.90
59961;DHT22;55902;-37.980;-63.602;2023-05-09T07:58:02;7.70;99.90
59961;DHT22;55902;-37.980;-63.602;2023-05-09T08:00:29;7.80;99.90
59961;DHT22;55902;-37.980;-63.602;2023-05-09T08:02:56;7.80;99.90
59961;DHT22;55902;-37.980;-63.602;2023-05-09T08:05:23;7.80;99.90
59961;DHT22;55902;-37.980;-63.602;2023-05-09T08:07:50;7.80;99.90
59961;DHT22;55902;-37.980;-63.602;2023-05-09T08:10:17;7.80;99.90
59961;DHT22;55902;-37.980;-63.602;2023-05-09T08:12:47;7.90;99.90
59961;DHT22;55902;-37.980;-63.602;2023-05-09T08:15:14;7.90;99.90
59961;DHT22;55902;-37.980;-63.602;2023-05-09T08:17:41;7.90;99.90
59961;DHT22;55902;-37.980;-63.602;2023-05-09T08:20:09;8.00;99.90
59961;DHT22;55902;-37.980;-63.602;2023-05-09T08:22:38;8.00;99.90
59961;DHT22;55902;-37.980;-63.602;2023-05-09T08:25:07;8.00;99.90
59961;DHT22;55902;-37.980;-63.602;2023-05-09T08:27:34;8.10;99.90
59961;DHT22;55902;-37.980;-63.602;2023-05-09T08:30:01;8.10;99.90
59961;DHT22;55902;-37.980;-63.602;2023-05-09T08:32:28;8.10;99.90
59961;DHT22;55902;-37.980;-63.602;2023-05-09T08:34:55;8.10;99.90
59961;DHT22;55902;-37.980;-63.602;2023-05-09T08:37:21;8.10;99.90
59961;DHT22;55902;-37.980;-63.602;2023-05-09T08:39:49;8.10;99.90
59961;DHT22;55902;-37.980;-63.602;2023-05-09T08:42:16;8.10;99.90
59961;DHT22;55902;-37.980;-63.602;2023-05-09T08:44:45;8.10;99.90
59961;DHT22;55902;-37.980;-63.602;2023-05-09T08:47:12;8.10;99.90
59961;DHT22;55902;-37.980;-63.602;2023-05-09T08:49:40;8.10;99.90
59961;DHT22;55902;-37.980;-63.602;2023-05-09T08:52:08;8.10;99.90
59961;DHT22;55902;-37.980;-63.602;2023-05-09T08:54:36;8.20;99.90
59961;DHT22;55902;-37.980;-63.602;2023-05-09T08:57:04;8.20;99.90
59961;DHT22;55902;-37.980;-63.602;2023-05-09T08:59:31;8.20;99.90
59961;DHT22;55902;-37.980;-63.602;2023-05-09T09:02:05;8.20;99.90
59961;DHT22;55902;-37.980;-63.602;2023-05-09T09:04:33;8.30;99.90
59961;DHT22;55902;-37.980;-63.602;2023-05-09T09:07:00;8.30;99.90
59961;DHT22;55902;-37.980;-63.602;2023-05-09T09:09:29;8.40;99.90
59961;DHT22;55902;-37.980;-63.602;2023-05-09T09:11:57;8.40;99.90
59961;DHT22;55902;-37.980;-63.602;2023-05-09T09:14:26;8.40;99.90
59961;DHT22;55902;-37.980;-63.602;2023-05-09T09:16:55;8.50;99.90
59961;DHT22;55902;-37.980;-63.602;2023-05-09T09:19:26;8.60;99.90
59961;DHT22;55902;-37.980;-63.602;2023-05-09T09:21:59;8.60;99.90
59961;DHT22;55902;-37.980;-63.602;2023-05-09T09:24:28;8.60;99.90
59961;DHT22;55902;-37.980;-63.602;2023-05-09T09:26:56;8.60;99.90
59961;DHT22;55902;-37.980;-63.602;2023-05-09T09:29:24;8.60;99.90
59961;DHT22;55902;-37.980;-63.602;2023-05-09T09:31:54;8.60;99.90
59961;DHT22;55902;-37.980;-63.602;2023-05-09T09:34:22;8.60;99.90
59961;DHT22;55902;-37.980;-63.602;2023-05-09T09:36:49;8.60;99.90
59961;DHT22;55902;-37.980;-63.602;2023-05-09T09:39:16;8.60;99.90
59961;DHT22;55902;-37.980;-63.602;2023-05-09T09:41:43;8.50;99.90
59961;DHT22;55902;-37.980;-63.602;2023-05-09T09:44:15;8.50;99.90
59961;DHT22;55902;-37.980;-63.602;2023-05-09T09:46:51;8.40;99.90
59961;DHT22;55902;-37.980;-63.602;2023-05-09T09:49:25;8.40;99.90
59961;DHT22;55902;-37.980;-63.602;2023-05-09T09:51:56;8.30;99.90
59961;DHT22;55902;-37.980;-63.602;2023-05-09T09:54:27;8.30;99.90
59961;DHT22;55902;-37.980;-63.602;2023-05-09T09:56:54;8.20;99.90
59961;DHT22;55902;-37.980;-63.602;2023-05-09T09:59:25;8.20;99.90
59961;DHT22;55902;-37.980;-63.602;2023-05-09T10:04:24;8.20;99.90
59961;DHT22;55902;-37.980;-63.602;2023-05-09T10:06:53;8.10;99.90
59961;DHT22;55902;-37.980;-63.602;2023-05-09T10:09:21;8.10;99.90
59961;DHT22;55902;-37.980;-63.602;2023-05-09T10:11:50;8.10;99.90
59961;DHT22;55902;-37.980;-63.602;2023-05-09T10:14:25;8.20;99.90
59961;DHT22;55902;-37.980;-63.602;2023-05-09T10:16:54;8.20;99.90
59961;DHT22;55902;-37.980;-63.602;2023-05-09T10:19:26;8.20;99.90
59961;DHT22;55902;-37.980;-63.602;2023-05-09T10:22:02;8.20;99.90
59961;DHT22;55902;-37.980;-63.602;2023-05-09T10:24:46;8.30;99.90
59961;DHT22;55902;-37.980;-63.602;2023-05-09T10:27:16;8.30;99.90
59961;DHT22;55902;-37.980;-63.602;2023-05-09T10:30:16;8.40;99.90
59961;DHT22;55902;-37.980;-63.602;2023-05-09T10:32:58;8.40;99.90
59961;DHT22;55902;-37.980;-63.602;2023-05-09T10:35:35;8.50;99.90
59961;DHT22;55902;-37.980;-63.602;2023-05-09T10:38:03;8.50;99.90
59961;DHT22;55902;-37.980;-63.602;2023-05-09T10:40:30;8.50;99.90
59961;DHT22;55902;-37.980;-63.602;2023-05-09T10:42:58;8.50;99.90
59961;DHT22;55902;-37.980;-63.602;2023-05-09T10:45:25;8.50;99.90
59961;DHT22;55902;-37.980;-63.602;2023-05-09T10:47:53;8.50;99.90
59961;DHT22;55902;-37.980;-63.602;2023-05-09T10:50:22;8.50;99.90
59961;DHT22;55902;-37.980;-63.602;2023-05-09T10:53:08;8.50;99.90
59961;DHT22;55902;-37.980;-63.602;2023-05-09T10:55:56;8.50;99.90
59961;DHT22;55902;-37.980;-63.602;2023-05-09T10:58:29;8.50;99.90
59961;DHT22;55902;-37.980;-63.602;2023-05-09T11:01:00;8.50;99.90
59961;DHT22;55902;-37.980;-63.602;2023-05-09T11:03:52;8.50;99.90
59961;DHT22;55902;-37.980;-63.602;2023-05-09T11:06:42;8.50;99.90
59961;DHT22;55902;-37.980;-63.602;2023-05-09T11:12:12;8.40;99.90
59961;DHT22;55902;-37.980;-63.602;2023-05-09T11:14:42;8.40;99.90
59961;DHT22;55902;-37.980;-63.602;2023-05-09T11:17:13;8.30;99.90
59961;DHT22;55902;-37.980;-63.602;2023-05-09T11:22:16;8.40;99.90
59961;DHT22;55902;-37.980;-63.602;2023-05-09T11:24:46;8.30;99.90
59961;DHT22;55902;-37.980;-63.602;2023-05-09T11:27:20;8.30;99.90
59961;DHT22;55902;-37.980;-63.602;2023-05-09T11:29:52;8.40;99.90
59961;DHT22;55902;-37.980;-63.602;2023-05-09T11:32:21;8.30;99.90
59961;DHT22;55902;-37.980;-63.602;2023-05-09T11:34:49;8.30;99.90
59961;DHT22;55902;-37.980;-63.602;2023-05-09T11:37:17;8.30;99.90
59961;DHT22;55902;-37.980;-63.602;2023-05-09T11:40:01;8.30;99.90
59961;DHT22;55902;-37.980;-63.602;2023-05-09T11:42:32;8.40;99.90
59961;DHT22;55902;-37.980;-63.602;2023-05-09T11:44:59;8.40;99.90
59961;DHT22;55902;-37.980;-63.602;2023-05-09T11:47:26;8.40;99.90
59961;DHT22;55902;-37.980;-63.602;2023-05-09T11:49:54;8.50;99.90
59961;DHT22;55902;-37.980;-63.602;2023-05-09T11:52:21;8.50;99.90
59961;DHT22;55902;-37.980;-63.602;2023-05-09T11:54:49;8.60;99.90
59961;DHT22;55902;-37.980;-63.602;2023-05-09T11:57:39;8.60;99.90
59961;DHT22;55902;-37.980;-63.602;2023-05-09T12:00:09;8.70;99.90
59961;DHT22;55902;-37.980;-63.602;2023-05-09T12:02:37;8.70;99.90
59961;DHT22;55902;-37.980;-63.602;2023-05-09T12:05:09;8.80;99.90
59961;DHT22;55902;-37.980;-63.602;2023-05-09T12:07:37;8.80;99.90
59961;DHT22;55902;-37.980;-63.602;2023-05-09T12:10:09;8.90;99.90
59961;DHT22;55902;-37.980;-63.602;2023-05-09T12:12:43;8.90;99.90
59961;DHT22;55902;-37.980;-63.602;2023-05-09T12:15:11;9.00;99.90
59961;DHT22;55902;-37.980;-63.602;2023-05-09T12:17:39;9.00;99.90
59961;DHT22;55902;-37.980;-63.602;2023-05-09T12:20:07;9.10;99.90
59961;DHT22;55902;-37.980;-63.602;2023-05-09T12:22:35;9.10;99.90
59961;DHT22;55902;-37.980;-63.602;2023-05-09T12:25:07;9.10;99.90
59961;DHT22;55902;-37.980;-63.602;2023-05-09T12:27:37;9.20;99.90
59961;DHT22;55902;-37.980;-63.602;2023-05-09T12:30:05;9.30;99.90
59961;DHT22;55902;-37.980;-63.602;2023-05-09T12:32:41;9.40;99.90
59961;DHT22;55902;-37.980;-63.602;2023-05-09T12:35:09;9.50;99.90
59961;DHT22;55902;-37.980;-63.602;2023-05-09T12:37:36;9.60;99.90
59961;DHT22;55902;-37.980;-63.602;2023-05-09T12:40:11;9.70;99.90
59961;DHT22;55902;-37.980;-63.602;2023-05-09T12:42:43;9.80;99.90
59961;DHT22;55902;-37.980;-63.602;2023-05-09T12:45:11;9.90;99.90
59961;DHT22;55902;-37.980;-63.602;2023-05-09T12:47:38;10.00;99.90
59961;DHT22;55902;-37.980;-63.602;2023-05-09T12:50:09;10.00;99.90
59961;DHT22;55902;-37.980;-63.602;2023-05-09T12:52:57;10.00;99.90
59961;DHT22;55902;-37.980;-63.602;2023-05-09T12:55:47;10.00;99.90
59961;DHT22;55902;-37.980;-63.602;2023-05-09T12:58:14;10.10;99.90
59961;DHT22;55902;-37.980;-63.602;2023-05-09T13:00:43;10.10;99.90
59961;DHT22;55902;-37.980;-63.602;2023-05-09T13:03:28;10.20;99.90
59961;DHT22;55902;-37.980;-63.602;2023-05-09T13:06:04;10.30;99.90
59961;DHT22;55902;-37.980;-63.602;2023-05-09T13:08:38;10.30;99.90
59961;DHT22;55902;-37.980;-63.602;2023-05-09T13:11:08;10.50;99.90
59961;DHT22;55902;-37.980;-63.602;2023-05-09T13:13:37;10.50;99.90
59961;DHT22;55902;-37.980;-63.602;2023-05-09T13:16:05;10.60;99.90
59961;DHT22;55902;-37.980;-63.602;2023-05-09T13:18:32;10.60;99.90
59961;DHT22;55902;-37.980;-63.602;2023-05-09T13:21:01;10.70;99.90
59961;DHT22;55902;-37.980;-63.602;2023-05-09T13:23:48;10.80;99.90
59961;DHT22;55902;-37.980;-63.602;2023-05-09T13:26:16;10.90;99.90
59961;DHT22;55902;-37.980;-63.602;2023-05-09T13:28:43;10.90;99.90
59961;DHT22;55902;-37.980;-63.602;2023-05-09T13:31:11;10.90;99.90
59961;DHT22;55902;-37.980;-63.602;2023-05-09T13:33:39;11.00;99.90
59961;DHT22;55902;-37.980;-63.602;2023-05-09T13:36:06;11.10;99.90
59961;DHT22;55902;-37.980;-63.602;2023-05-09T13:38:34;11.10;99.90
59961;DHT22;55902;-37.980;-63.602;2023-05-09T13:41:04;11.20;99.90
59961;DHT22;55902;-37.980;-63.602;2023-05-09T13:43:31;11.20;99.90
59961;DHT22;55902;-37.980;-63.602;2023-05-09T13:45:59;11.30;99.90
59961;DHT22;55902;-37.980;-63.602;2023-05-09T13:48:26;11.30;99.90
59961;DHT22;55902;-37.980;-63.602;2023-05-09T13:50:53;11.40;99.90
59961;DHT22;55902;-37.980;-63.602;2023-05-09T13:53:22;11.50;99.90
59961;DHT22;55902;-37.980;-63.602;2023-05-09T13:55:49;11.60;99.90
59961;DHT22;55902;-37.980;-63.602;2023-05-09T13:58:17;11.60;99.90
59961;DHT22;55902;-37.980;-63.602;2023-05-09T14:00:44;11.70;99.90
59961;DHT22;55902;-37.980;-63.602;2023-05-09T14:03:12;11.80;99.90
59961;DHT22;55902;-37.980;-63.602;2023-05-09T14:05:42;11.90;99.90
59961;DHT22;55902;-37.980;-63.602;2023-05-09T14:08:14;12.00;99.90
59961;DHT22;55902;-37.980;-63.602;2023-05-09T14:10:42;12.10;99.90
59961;DHT22;55902;-37.980;-63.602;2023-05-09T14:13:10;12.10;99.90
59961;DHT22;55902;-37.980;-63.602;2023-05-09T14:15:38;12.20;99.90
59961;DHT22;55902;-37.980;-63.602;2023-05-09T14:18:05;12.40;99.90
59961;DHT22;55902;-37.980;-63.602;2023-05-09T14:20:32;12.40;99.90
59961;DHT22;55902;-37.980;-63.602;2023-05-09T14:22:59;12.50;99.90
59961;DHT22;55902;-37.980;-63.602;2023-05-09T14:25:27;12.60;99.90
59961;DHT22;55902;-37.980;-63.602;2023-05-09T14:27:55;12.60;99.90
59961;DHT22;55902;-37.980;-63.602;2023-05-09T14:30:23;12.70;99.90
59961;DHT22;55902;-37.980;-63.602;2023-05-09T14:32:52;12.70;99.90
59961;DHT22;55902;-37.980;-63.602;2023-05-09T14:35:19;12.80;99.90
59961;DHT22;55902;-37.980;-63.602;2023-05-09T14:37:46;12.90;99.90
59961;DHT22;55902;-37.980;-63.602;2023-05-09T14:40:15;12.90;99.90
59961;DHT22;55902;-37.980;-63.602;2023-05-09T14:42:42;12.90;99.90
59961;DHT22;55902;-37.980;-63.602;2023-05-09T14:45:09;13.00;99.90
59961;DHT22;55902;-37.980;-63.602;2023-05-09T14:47:38;13.00;99.90
59961;DHT22;55902;-37.980;-63.602;2023-05-09T14:50:06;13.10;99.90
59961;DHT22;55902;-37.980;-63.602;2023-05-09T14:52:36;13.20;99.90
59961;DHT22;55902;-37.980;-63.602;2023-05-09T14:55:04;13.30;99.90
59961;DHT22;55902;-37.980;-63.602;2023-05-09T14:57:33;13.30;99.90
59961;DHT22;55902;-37.980;-63.602;2023-05-09T15:00:00;13.50;99.90
59961;DHT22;55902;-37.980;-63.602;2023-05-09T15:02:27;13.60;99.90
59961;DHT22;55902;-37.980;-63.602;2023-05-09T15:04:54;13.70;99.90
59961;DHT22;55902;-37.980;-63.602;2023-05-09T15:07:22;13.80;99.90
59961;DHT22;55902;-37.980;-63.602;2023-05-09T15:09:50;13.90;99.90
59961;DHT22;55902;-37.980;-63.602;2023-05-09T15:12:18;14.00;99.90
59961;DHT22;55902;-37.980;-63.602;2023-05-09T15:14:47;14.10;99.90
59961;DHT22;55902;-37.980;-63.602;2023-05-09T15:17:14;14.20;99.90
59961;DHT22;55902;-37.980;-63.602;2023-05-09T15:19:41;14.30;99.90
59961;DHT22;55902;-37.980;-63.602;2023-05-09T15:22:08;14.30;99.90
59961;DHT22;55902;-37.980;-63.602;2023-05-09T15:24:36;14.30;99.90
59961;DHT22;55902;-37.980;-63.602;2023-05-09T15:27:03;14.30;99.90
59961;DHT22;55902;-37.980;-63.602;2023-05-09T15:29:30;14.30;99.90
59961;DHT22;55902;-37.980;-63.602;2023-05-09T15:31:57;14.30;99.90
59961;DHT22;55902;-37.980;-63.602;2023-05-09T15:34:24;14.40;99.90
59961;DHT22;55902;-37.980;-63.602;2023-05-09T15:36:51;14.40;99.90
59961;DHT22;55902;-37.980;-63.602;2023-05-09T15:39:19;14.40;99.90
59961;DHT22;55902;-37.980;-63.602;2023-05-09T15:42:07;14.30;99.90
59961;DHT22;55902;-37.980;-63.602;2023-05-09T15:44:42;14.30;99.90
59961;DHT22;55902;-37.980;-63.602;2023-05-09T15:47:29;14.40;99.90
59961;DHT22;55902;-37.980;-63.602;2023-05-09T15:49:57;14.40;99.90
59961;DHT22;55902;-37.980;-63.602;2023-05-09T15:52:25;14.50;99.90
59961;DHT22;55902;-37.980;-63.602;2023-05-09T15:54:54;14.50;99.90
59961;DHT22;55902;-37.980;-63.602;2023-05-09T15:57:22;14.50;99.90
59961;DHT22;55902;-37.980;-63.602;2023-05-09T15:59:50;14.60;99.90
59961;DHT22;55902;-37.980;-63.602;2023-05-09T16:02:20;14.70;99.90
59961;DHT22;55902;-37.980;-63.602;2023-05-09T16:04:47;14.80;99.90
59961;DHT22;55902;-37.980;-63.602;2023-05-09T16:07:15;14.90;99.90
59961;DHT22;55902;-37.980;-63.602;2023-05-09T16:09:42;15.10;99.90
59961;DHT22;55902;-37.980;-63.602;2023-05-09T16:12:13;15.20;99.90
59961;DHT22;55902;-37.980;-63.602;2023-05-09T16:14:40;15.30;99.90
59961;DHT22;55902;-37.980;-63.602;2023-05-09T16:17:07;15.40;99.90